sensor_id;sensor_type;location;lat;lon;timestamp;temperature;humidity
81192;DHT22;70665;47.652;-2.730;2023-08-06T00:00:16;15.40;75.60
81192;DHT22;70665;47.652;-2.730;2023-08-06T00:02:41;15.30;78.70
81192;DHT22;70665;47.652;-2.730;2023-08-06T00:05:07;15.40;75.90
81192;DHT22;70665;47.652;-2.730;2023-08-06T00:07:33;15.30;78.90
81192;DHT22;70665;47.652;-2.730;2023-08-06T00:09:58;15.20;75.90
81192;DHT22;70665;47.652;-2.730;2023-08-06T00:12:24;15.20;79.10
81192;DHT22;70665;47.652;-2.730;2023-08-06T00:14:53;15.30;76.50
81192;DHT22;70665;47.652;-2.730;2023-08-06T00:17:19;15.20;76.00
81192;DHT22;70665;47.652;-2.730;2023-08-06T00:19:45;15.20;76.70
81192;DHT22;70665;47.652;-2.730;2023-08-06T00:22:10;15.20;79.40
81192;DHT22;70665;47.652;-2.730;2023-08-06T00:24:36;15.20;75.90
81192;DHT22;70665;47.652;-2.730;2023-08-06T00:27:02;15.20;76.70
81192;DHT22;70665;47.652;-2.730;2023-08-06T00:29:28;15.20;76.30
81192;DHT22;70665;47.652;-2.730;2023-08-06T00:31:54;15.20;79.80
81192;DHT22;70665;47.652;-2.730;2023-08-06T00:34:19;15.20;76.20
81192;DHT22;70665;47.652;-2.730;2023-08-06T00:36:45;15.20;79.50
81192;DHT22;70665;47.652;-2.730;2023-08-06T00:39:10;15.20;76.60
81192;DHT22;70665;47.652;-2.730;2023-08-06T00:41:36;15.10;79.60
81192;DHT22;70665;47.652;-2.730;2023-08-06T00:44:02;15.10;77.00
81192;DHT22;70665;47.652;-2.730;2023-08-06T00:46:27;15.20;77.00
81192;DHT22;70665;47.652;-2.730;2023-08-06T00:48:53;15.10;77.10
81192;DHT22;70665;47.652;-2.730;2023-08-06T00:51:20;15.10;76.90
81192;DHT22;70665;47.652;-2.730;2023-08-06T00:53:46;15.10;76.90
81192;DHT22;70665;47.652;-2.730;2023-08-06T00:56:13;15.00;77.80
81192;DHT22;70665;47.652;-2.730;2023-08-06T00:58:39;15.00;77.10
81192;DHT22;70665;47.652;-2.730;2023-08-06T01:01:05;14.90;77.60
81192;DHT22;70665;47.652;-2.730;2023-08-06T01:03:31;15.00;78.00
81192;DHT22;70665;47.652;-2.730;2023-08-06T01:05:57;15.00;81.30
81192;DHT22;70665;47.652;-2.730;2023-08-06T01:08:55;15.00;80.40
81192;DHT22;70665;47.652;-2.730;2023-08-06T01:17:08;14.90;78.00
81192;DHT22;70665;47.652;-2.730;2023-08-06T01:19:33;14.90;78.70
81192;DHT22;70665;47.652;-2.730;2023-08-06T01:21:59;15.00;78.80
81192;DHT22;70665;47.652;-2.730;2023-08-06T01:24:24;14.90;80.50
81192;DHT22;70665;47.652;-2.730;2023-08-06T01:27:06;15.00;80.80
81192;DHT22;70665;47.652;-2.730;2023-08-06T01:29:43;15.00;79.70
81192;DHT22;70665;47.652;-2.730;2023-08-06T01:32:12;14.90;82.20
81192;DHT22;70665;47.652;-2.730;2023-08-06T01:34:40;14.80;79.80
81192;DHT22;70665;47.652;-2.730;2023-08-06T01:37:07;14.90;79.30
81192;DHT22;70665;47.652;-2.730;2023-08-06T01:39:33;14.90;81.20
81192;DHT22;70665;47.652;-2.730;2023-08-06T01:41:59;14.80;81.40
81192;DHT22;70665;47.652;-2.730;2023-08-06T01:44:24;14.80;80.60
81192;DHT22;70665;47.652;-2.730;2023-08-06T01:46:50;14.90;84.10
81192;DHT22;70665;47.652;-2.730;2023-08-06T01:49:16;14.80;83.00
81192;DHT22;70665;47.652;-2.730;2023-08-06T01:51:41;14.70;84.80
81192;DHT22;70665;47.652;-2.730;2023-08-06T01:54:07;14.70;83.20
81192;DHT22;70665;47.652;-2.730;2023-08-06T01:56:32;14.70;84.70
81192;DHT22;70665;47.652;-2.730;2023-08-06T01:58:58;14.70;81.30
81192;DHT22;70665;47.652;-2.730;2023-08-06T02:01:23;14.70;83.70
81192;DHT22;70665;47.652;-2.730;2023-08-06T02:03:49;14.70;80.70
81192;DHT22;70665;47.652;-2.730;2023-08-06T02:06:14;14.80;84.10
81192;DHT22;70665;47.652;-2.730;2023-08-06T02:08:40;14.70;80.60
81192;DHT22;70665;47.652;-2.730;2023-08-06T02:11:06;14.70;84.50
81192;DHT22;70665;47.652;-2.730;2023-08-06T02:13:31;14.60;80.50
81192;DHT22;70665;47.652;-2.730;2023-08-06T02:15:57;14.70;80.50
81192;DHT22;70665;47.652;-2.730;2023-08-06T02:18:22;14.70;84.50
81192;DHT22;70665;47.652;-2.730;2023-08-06T02:20:58;14.60;82.70
81192;DHT22;70665;47.652;-2.730;2023-08-06T02:23:24;14.50;81.00
81192;DHT22;70665;47.652;-2.730;2023-08-06T02:26:10;14.60;83.40
81192;DHT22;70665;47.652;-2.730;2023-08-06T02:28:36;14.60;81.50
81192;DHT22;70665;47.652;-2.730;2023-08-06T02:31:02;14.60;80.90
81192;DHT22;70665;47.652;-2.730;2023-08-06T02:33:27;14.60;84.10
81192;DHT22;70665;47.652;-2.730;2023-08-06T02:36:00;14.50;83.30
81192;DHT22;70665;47.652;-2.730;2023-08-06T02:38:26;14.50;80.80
81192;DHT22;70665;47.652;-2.730;2023-08-06T02:40:52;14.50;81.00
81192;DHT22;70665;47.652;-2.730;2023-08-06T02:43:18;14.60;80.40
81192;DHT22;70665;47.652;-2.730;2023-08-06T02:45:43;14.60;80.50
81192;DHT22;70665;47.652;-2.730;2023-08-06T02:48:09;14.60;80.00
81192;DHT22;70665;47.652;-2.730;2023-08-06T02:50:39;14.60;80.70
81192;DHT22;70665;47.652;-2.730;2023-08-06T02:53:06;14.60;80.40
81192;DHT22;70665;47.652;-2.730;2023-08-06T02:55:33;14.50;80.20
81192;DHT22;70665;47.652;-2.730;2023-08-06T02:58:00;14.50;80.30
81192;DHT22;70665;47.652;-2.730;2023-08-06T03:00:26;14.50;80.30
81192;DHT22;70665;47.652;-2.730;2023-08-06T03:02:52;14.50;80.80
81192;DHT22;70665;47.652;-2.730;2023-08-06T03:05:18;14.40;80.90
81192;DHT22;70665;47.652;-2.730;2023-08-06T03:07:43;14.40;81.80
81192;DHT22;70665;47.652;-2.730;2023-08-06T03:10:09;14.40;81.20
81192;DHT22;70665;47.652;-2.730;2023-08-06T03:12:35;14.40;84.80
81192;DHT22;70665;47.652;-2.730;2023-08-06T03:15:00;14.30;81.80
81192;DHT22;70665;47.652;-2.730;2023-08-06T03:17:26;14.30;81.50
81192;DHT22;70665;47.652;-2.730;2023-08-06T03:19:52;14.20;83.60
81192;DHT22;70665;47.652;-2.730;2023-08-06T03:22:17;14.20;85.10
81192;DHT22;70665;47.652;-2.730;2023-08-06T03:24:43;14.20;82.70
81192;DHT22;70665;47.652;-2.730;2023-08-06T03:27:09;14.20;82.20
81192;DHT22;70665;47.652;-2.730;2023-08-06T03:29:34;14.10;82.70
81192;DHT22;70665;47.652;-2.730;2023-08-06T03:32:00;14.10;82.20
81192;DHT22;70665;47.652;-2.730;2023-08-06T03:34:25;14.10;82.60
81192;DHT22;70665;47.652;-2.730;2023-08-06T03:36:51;14.10;81.90
81192;DHT22;70665;47.652;-2.730;2023-08-06T03:39:17;14.20;82.30
81192;DHT22;70665;47.652;-2.730;2023-08-06T03:41:42;14.20;81.90
81192;DHT22;70665;47.652;-2.730;2023-08-06T03:44:08;14.10;85.30
81192;DHT22;70665;47.652;-2.730;2023-08-06T03:46:33;14.20;82.00
81192;DHT22;70665;47.652;-2.730;2023-08-06T03:48:59;14.00;85.30
81192;DHT22;70665;47.652;-2.730;2023-08-06T03:51:25;14.00;82.40
81192;DHT22;70665;47.652;-2.730;2023-08-06T03:53:51;14.00;82.40
81192;DHT22;70665;47.652;-2.730;2023-08-06T03:56:16;14.00;82.30
81192;DHT22;70665;47.652;-2.730;2023-08-06T03:58:42;14.00;85.20
81192;DHT22;70665;47.652;-2.730;2023-08-06T04:01:07;13.90;83.00
81192;DHT22;70665;47.652;-2.730;2023-08-06T04:03:33;13.90;82.20
81192;DHT22;70665;47.652;-2.730;2023-08-06T04:05:59;14.00;82.50
81192;DHT22;70665;47.652;-2.730;2023-08-06T04:08:26;13.90;82.20
81192;DHT22;70665;47.652;-2.730;2023-08-06T04:10:52;13.90;82.70
81192;DHT22;70665;47.652;-2.730;2023-08-06T04:13:18;13.90;82.00
81192;DHT22;70665;47.652;-2.730;2023-08-06T04:15:44;13.90;82.20
81192;DHT22;70665;47.652;-2.730;2023-08-06T04:18:10;13.90;82.40
81192;DHT22;70665;47.652;-2.730;2023-08-06T04:20:43;13.90;83.50
81192;DHT22;70665;47.652;-2.730;2023-08-06T04:23:09;13.90;82.10
81192;DHT22;70665;47.652;-2.730;2023-08-06T04:25:34;13.80;82.60
81192;DHT22;70665;47.652;-2.730;2023-08-06T04:28:00;13.90;82.40
81192;DHT22;70665;47.652;-2.730;2023-08-06T04:30:26;13.70;84.50
81192;DHT22;70665;47.652;-2.730;2023-08-06T04:32:51;13.80;82.80
81192;DHT22;70665;47.652;-2.730;2023-08-06T04:35:17;13.80;83.70
81192;DHT22;70665;47.652;-2.730;2023-08-06T04:37:42;13.80;83.70
81192;DHT22;70665;47.652;-2.730;2023-08-06T04:40:08;13.70;83.80
81192;DHT22;70665;47.652;-2.730;2023-08-06T04:42:34;13.70;83.80
81192;DHT22;70665;47.652;-2.730;2023-08-06T04:45:01;13.70;84.00
81192;DHT22;70665;47.652;-2.730;2023-08-06T04:47:27;13.70;82.80
81192;DHT22;70665;47.652;-2.730;2023-08-06T04:49:53;13.70;83.90
81192;DHT22;70665;47.652;-2.730;2023-08-06T04:52:19;13.80;83.20
81192;DHT22;70665;47.652;-2.730;2023-08-06T04:54:45;13.80;83.50
81192;DHT22;70665;47.652;-2.730;2023-08-06T04:57:10;13.70;87.30
81192;DHT22;70665;47.652;-2.730;2023-08-06T04:59:36;13.70;83.60
81192;DHT22;70665;47.652;-2.730;2023-08-06T05:02:01;13.70;83.50
81192;DHT22;70665;47.652;-2.730;2023-08-06T05:04:27;13.70;83.70
81192;DHT22;70665;47.652;-2.730;2023-08-06T05:06:53;13.70;84.10
81192;DHT22;70665;47.652;-2.730;2023-08-06T05:09:19;13.70;83.80
81192;DHT22;70665;47.652;-2.730;2023-08-06T05:11:46;13.70;83.80
81192;DHT22;70665;47.652;-2.730;2023-08-06T05:14:12;13.80;83.80
81192;DHT22;70665;47.652;-2.730;2023-08-06T05:16:38;13.70;84.00
81192;DHT22;70665;47.652;-2.730;2023-08-06T05:19:03;13.80;83.10
81192;DHT22;70665;47.652;-2.730;2023-08-06T05:21:29;13.90;83.40
81192;DHT22;70665;47.652;-2.730;2023-08-06T05:23:55;13.90;83.40
81192;DHT22;70665;47.652;-2.730;2023-08-06T05:26:20;13.90;83.50
81192;DHT22;70665;47.652;-2.730;2023-08-06T05:28:46;14.00;82.90
81192;DHT22;70665;47.652;-2.730;2023-08-06T05:31:13;14.10;82.90
81192;DHT22;70665;47.652;-2.730;2023-08-06T05:33:38;14.00;82.70
81192;DHT22;70665;47.652;-2.730;2023-08-06T05:36:04;14.10;83.40
81192;DHT22;70665;47.652;-2.730;2023-08-06T05:38:30;14.10;82.60
81192;DHT22;70665;47.652;-2.730;2023-08-06T05:40:56;14.10;83.80
81192;DHT22;70665;47.652;-2.730;2023-08-06T05:43:22;14.10;82.80
81192;DHT22;70665;47.652;-2.730;2023-08-06T05:45:51;14.20;86.10
81192;DHT22;70665;47.652;-2.730;2023-08-06T05:48:17;14.20;83.30
81192;DHT22;70665;47.652;-2.730;2023-08-06T05:50:42;14.20;85.10
81192;DHT22;70665;47.652;-2.730;2023-08-06T05:53:08;14.30;82.30
81192;DHT22;70665;47.652;-2.730;2023-08-06T05:55:34;14.40;84.10
81192;DHT22;70665;47.652;-2.730;2023-08-06T05:58:01;14.50;82.50
81192;DHT22;70665;47.652;-2.730;2023-08-06T06:00:26;14.50;81.60
81192;DHT22;70665;47.652;-2.730;2023-08-06T06:02:52;14.60;81.10
81192;DHT22;70665;47.652;-2.730;2023-08-06T06:05:17;14.70;80.60
81192;DHT22;70665;47.652;-2.730;2023-08-06T06:07:43;14.80;83.30
81192;DHT22;70665;47.652;-2.730;2023-08-06T06:10:09;14.90;80.90
81192;DHT22;70665;47.652;-2.730;2023-08-06T06:12:35;15.00;79.90
81192;DHT22;70665;47.652;-2.730;2023-08-06T06:15:00;15.10;80.40
81192;DHT22;70665;47.652;-2.730;2023-08-06T06:17:26;15.00;82.60
81192;DHT22;70665;47.652;-2.730;2023-08-06T06:19:52;15.10;80.20
81192;DHT22;70665;47.652;-2.730;2023-08-06T06:22:18;15.20;82.70
81192;DHT22;70665;47.652;-2.730;2023-08-06T06:24:43;15.30;79.90
81192;DHT22;70665;47.652;-2.730;2023-08-06T06:27:09;15.40;79.80
81192;DHT22;70665;47.652;-2.730;2023-08-06T06:29:35;15.50;79.00
81192;DHT22;70665;47.652;-2.730;2023-08-06T06:32:00;15.60;81.60
81192;DHT22;70665;47.652;-2.730;2023-08-06T06:34:26;15.70;78.60
81192;DHT22;70665;47.652;-2.730;2023-08-06T06:36:51;15.90;81.50
81192;DHT22;70665;47.652;-2.730;2023-08-06T06:39:17;15.90;78.60
81192;DHT22;70665;47.652;-2.730;2023-08-06T06:41:43;16.00;77.80
81192;DHT22;70665;47.652;-2.730;2023-08-06T06:44:09;16.00;80.80
81192;DHT22;70665;47.652;-2.730;2023-08-06T06:46:35;16.10;77.50
81192;DHT22;70665;47.652;-2.730;2023-08-06T06:49:01;16.20;77.40
81192;DHT22;70665;47.652;-2.730;2023-08-06T06:51:26;16.20;79.90
81192;DHT22;70665;47.652;-2.730;2023-08-06T06:53:52;16.30;77.90
81192;DHT22;70665;47.652;-2.730;2023-08-06T06:56:17;16.40;79.60
81192;DHT22;70665;47.652;-2.730;2023-08-06T06:58:43;16.40;77.30
81192;DHT22;70665;47.652;-2.730;2023-08-06T07:01:09;16.50;79.10
81192;DHT22;70665;47.652;-2.730;2023-08-06T07:03:37;16.60;77.60
81192;DHT22;70665;47.652;-2.730;2023-08-06T07:06:02;16.70;79.50
81192;DHT22;70665;47.652;-2.730;2023-08-06T07:08:29;16.70;76.60
81192;DHT22;70665;47.652;-2.730;2023-08-06T07:11:01;16.90;79.10
81192;DHT22;70665;47.652;-2.730;2023-08-06T07:13:27;16.90;76.80
81192;DHT22;70665;47.652;-2.730;2023-08-06T07:15:54;17.10;78.70
81192;DHT22;70665;47.652;-2.730;2023-08-06T07:18:20;17.10;77.90
81192;DHT22;70665;47.652;-2.730;2023-08-06T07:20:49;17.20;78.70
81192;DHT22;70665;47.652;-2.730;2023-08-06T07:23:14;17.30;77.00
81192;DHT22;70665;47.652;-2.730;2023-08-06T07:25:40;17.40;78.20
81192;DHT22;70665;47.652;-2.730;2023-08-06T07:28:05;17.60;75.50
81192;DHT22;70665;47.652;-2.730;2023-08-06T07:30:31;17.50;77.30
81192;DHT22;70665;47.652;-2.730;2023-08-06T07:32:56;17.60;74.90
81192;DHT22;70665;47.652;-2.730;2023-08-06T07:35:22;17.60;74.90
81192;DHT22;70665;47.652;-2.730;2023-08-06T07:37:48;17.60;75.00
81192;DHT22;70665;47.652;-2.730;2023-08-06T07:40:13;17.70;76.90
81192;DHT22;70665;47.652;-2.730;2023-08-06T07:42:39;17.80;73.90
81192;DHT22;70665;47.652;-2.730;2023-08-06T07:45:05;17.70;76.40
81192;DHT22;70665;47.652;-2.730;2023-08-06T07:47:30;17.70;74.60
81192;DHT22;70665;47.652;-2.730;2023-08-06T07:49:56;17.80;73.90
81192;DHT22;70665;47.652;-2.730;2023-08-06T07:52:21;17.80;76.50
81192;DHT22;70665;47.652;-2.730;2023-08-06T07:54:47;17.90;75.30
81192;DHT22;70665;47.652;-2.730;2023-08-06T07:57:13;18.00;73.70
81192;DHT22;70665;47.652;-2.730;2023-08-06T07:59:40;18.00;75.70
81192;DHT22;70665;47.652;-2.730;2023-08-06T08:02:05;18.30;75.90
81192;DHT22;70665;47.652;-2.730;2023-08-06T08:04:31;18.20;73.20
81192;DHT22;70665;47.652;-2.730;2023-08-06T08:06:57;18.20;74.20
81192;DHT22;70665;47.652;-2.730;2023-08-06T08:09:22;18.20;73.80
81192;DHT22;70665;47.652;-2.730;2023-08-06T08:11:48;18.50;73.40
81192;DHT22;70665;47.652;-2.730;2023-08-06T08:14:14;18.40;74.40
81192;DHT22;70665;47.652;-2.730;2023-08-06T08:16:39;18.40;72.20
81192;DHT22;70665;47.652;-2.730;2023-08-06T08:19:05;18.50;73.40
81192;DHT22;70665;47.652;-2.730;2023-08-06T08:21:31;18.50;72.00
81192;DHT22;70665;47.652;-2.730;2023-08-06T08:23:58;18.60;72.90
81192;DHT22;70665;47.652;-2.730;2023-08-06T08:26:24;18.40;72.50
81192;DHT22;70665;47.652;-2.730;2023-08-06T08:28:50;18.70;73.40
81192;DHT22;70665;47.652;-2.730;2023-08-06T08:31:15;18.70;70.60
81192;DHT22;70665;47.652;-2.730;2023-08-06T08:33:42;18.90;71.00
81192;DHT22;70665;47.652;-2.730;2023-08-06T08:36:07;18.90;70.20
81192;DHT22;70665;47.652;-2.730;2023-08-06T08:38:35;19.10;70.10
81192;DHT22;70665;47.652;-2.730;2023-08-06T08:41:00;19.40;70.50
81192;DHT22;70665;47.652;-2.730;2023-08-06T08:43:27;19.40;68.90
81192;DHT22;70665;47.652;-2.730;2023-08-06T08:45:54;19.50;67.40
81192;DHT22;70665;47.652;-2.730;2023-08-06T08:48:26;19.40;67.80
81192;DHT22;70665;47.652;-2.730;2023-08-06T08:50:55;19.40;67.90
81192;DHT22;70665;47.652;-2.730;2023-08-06T08:53:21;19.50;66.90
81192;DHT22;70665;47.652;-2.730;2023-08-06T08:55:49;19.50;66.50
81192;DHT22;70665;47.652;-2.730;2023-08-06T08:58:15;19.50;67.80
81192;DHT22;70665;47.652;-2.730;2023-08-06T09:00:46;19.60;66.60
81192;DHT22;70665;47.652;-2.730;2023-08-06T09:03:13;19.60;66.40
81192;DHT22;70665;47.652;-2.730;2023-08-06T09:05:43;19.90;65.70
81192;DHT22;70665;47.652;-2.730;2023-08-06T09:08:12;19.90;66.20
81192;DHT22;70665;47.652;-2.730;2023-08-06T09:10:41;19.90;65.70
81192;DHT22;70665;47.652;-2.730;2023-08-06T09:13:08;20.10;64.30
81192;DHT22;70665;47.652;-2.730;2023-08-06T09:15:34;20.40;64.10
81192;DHT22;70665;47.652;-2.730;2023-08-06T09:18:00;20.50;63.40
81192;DHT22;70665;47.652;-2.730;2023-08-06T09:20:25;20.40;61.70
81192;DHT22;70665;47.652;-2.730;2023-08-06T09:22:54;20.50;62.10
81192;DHT22;70665;47.652;-2.730;2023-08-06T09:25:24;20.40;62.70
81192;DHT22;70665;47.652;-2.730;2023-08-06T09:27:51;20.60;62.80
81192;DHT22;70665;47.652;-2.730;2023-08-06T09:30:30;20.60;61.90
81192;DHT22;70665;47.652;-2.730;2023-08-06T09:32:56;20.50;61.10
81192;DHT22;70665;47.652;-2.730;2023-08-06T09:35:22;20.50;62.50
81192;DHT22;70665;47.652;-2.730;2023-08-06T09:37:48;20.60;60.70
81192;DHT22;70665;47.652;-2.730;2023-08-06T09:40:27;20.80;61.30
81192;DHT22;70665;47.652;-2.730;2023-08-06T09:42:53;21.00;60.80
81192;DHT22;70665;47.652;-2.730;2023-08-06T09:45:19;21.20;61.00
81192;DHT22;70665;47.652;-2.730;2023-08-06T09:47:48;21.30;60.40
81192;DHT22;70665;47.652;-2.730;2023-08-06T09:50:18;21.50;58.80
81192;DHT22;70665;47.652;-2.730;2023-08-06T09:52:44;21.70;60.30
81192;DHT22;70665;47.652;-2.730;2023-08-06T09:55:14;22.20;57.80
81192;DHT22;70665;47.652;-2.730;2023-08-06T09:57:43;22.30;57.20
81192;DHT22;70665;47.652;-2.730;2023-08-06T10:00:09;21.90;56.70
81192;DHT22;70665;47.652;-2.730;2023-08-06T10:02:39;21.50;58.90
81192;DHT22;70665;47.652;-2.730;2023-08-06T10:05:06;21.20;60.50
81192;DHT22;70665;47.652;-2.730;2023-08-06T10:07:31;21.00;59.80
81192;DHT22;70665;47.652;-2.730;2023-08-06T10:09:58;20.80;61.30
81192;DHT22;70665;47.652;-2.730;2023-08-06T10:12:25;21.20;58.10
81192;DHT22;70665;47.652;-2.730;2023-08-06T10:14:54;21.70;58.00
81192;DHT22;70665;47.652;-2.730;2023-08-06T10:17:21;22.10;57.60
81192;DHT22;70665;47.652;-2.730;2023-08-06T10:19:48;22.20;56.50
81192;DHT22;70665;47.652;-2.730;2023-08-06T10:22:16;22.50;57.00
81192;DHT22;70665;47.652;-2.730;2023-08-06T10:32:48;21.30;56.30
81192;DHT22;70665;47.652;-2.730;2023-08-06T10:35:30;21.60;55.70
81192;DHT22;70665;47.652;-2.730;2023-08-06T10:38:03;22.00;55.30
81192;DHT22;70665;47.652;-2.730;2023-08-06T10:40:28;22.20;55.40
81192;DHT22;70665;47.652;-2.730;2023-08-06T10:42:59;22.50;54.70
81192;DHT22;70665;47.652;-2.730;2023-08-06T10:45:25;22.80;55.90
81192;DHT22;70665;47.652;-2.730;2023-08-06T10:47:54;23.10;54.60
81192;DHT22;70665;47.652;-2.730;2023-08-06T10:50:21;23.50;55.10
81192;DHT22;70665;47.652;-2.730;2023-08-06T10:52:47;23.60;53.30
81192;DHT22;70665;47.652;-2.730;2023-08-06T10:55:14;23.30;50.50
81192;DHT22;70665;47.652;-2.730;2023-08-06T10:57:40;23.10;51.50
81192;DHT22;70665;47.652;-2.730;2023-08-06T11:00:07;23.10;52.30
81192;DHT22;70665;47.652;-2.730;2023-08-06T11:02:36;23.20;50.50
81192;DHT22;70665;47.652;-2.730;2023-08-06T11:05:10;23.40;50.70
81192;DHT22;70665;47.652;-2.730;2023-08-06T11:07:36;23.50;51.30
81192;DHT22;70665;47.652;-2.730;2023-08-06T11:10:07;23.70;48.60
81192;DHT22;70665;47.652;-2.730;2023-08-06T11:12:33;23.80;50.30
81192;DHT22;70665;47.652;-2.730;2023-08-06T11:15:00;24.00;49.90
81192;DHT22;70665;47.652;-2.730;2023-08-06T11:17:28;24.10;50.30
81192;DHT22;70665;47.652;-2.730;2023-08-06T11:19:54;24.30;49.30
81192;DHT22;70665;47.652;-2.730;2023-08-06T11:22:23;24.60;49.40
81192;DHT22;70665;47.652;-2.730;2023-08-06T11:24:49;24.90;49.20
81192;DHT22;70665;47.652;-2.730;2023-08-06T11:27:15;25.40;49.30
81192;DHT22;70665;47.652;-2.730;2023-08-06T11:29:42;25.60;44.20
81192;DHT22;70665;47.652;-2.730;2023-08-06T11:32:09;25.50;43.90
81192;DHT22;70665;47.652;-2.730;2023-08-06T11:34:35;26.00;48.70
81192;DHT22;70665;47.652;-2.730;2023-08-06T11:37:03;25.90;43.00
81192;DHT22;70665;47.652;-2.730;2023-08-06T11:39:34;25.50;48.00
81192;DHT22;70665;47.652;-2.730;2023-08-06T11:42:00;25.40;44.30
81192;DHT22;70665;47.652;-2.730;2023-08-06T11:44:30;25.40;46.20
81192;DHT22;70665;47.652;-2.730;2023-08-06T11:46:57;25.00;48.30
81192;DHT22;70665;47.652;-2.730;2023-08-06T11:52:14;24.10;48.50
81192;DHT22;70665;47.652;-2.730;2023-08-06T11:54:40;24.40;50.00
81192;DHT22;70665;47.652;-2.730;2023-08-06T11:57:05;24.50;47.10
81192;DHT22;70665;47.652;-2.730;2023-08-06T11:59:32;24.80;47.20
81192;DHT22;70665;47.652;-2.730;2023-08-06T12:01:57;25.10;47.30
81192;DHT22;70665;47.652;-2.730;2023-08-06T12:04:23;25.50;47.20
81192;DHT22;70665;47.652;-2.730;2023-08-06T12:06:48;25.90;48.50
81192;DHT22;70665;47.652;-2.730;2023-08-06T12:09:14;26.20;46.80
81192;DHT22;70665;47.652;-2.730;2023-08-06T12:11:40;26.20;45.50
81192;DHT22;70665;47.652;-2.730;2023-08-06T12:14:05;25.80;45.40
81192;DHT22;70665;47.652;-2.730;2023-08-06T12:16:31;25.70;45.10
81192;DHT22;70665;47.652;-2.730;2023-08-06T12:18:56;25.30;44.90
81192;DHT22;70665;47.652;-2.730;2023-08-06T12:21:22;25.10;48.90
81192;DHT22;70665;47.652;-2.730;2023-08-06T12:23:48;25.10;45.20
81192;DHT22;70665;47.652;-2.730;2023-08-06T12:26:13;25.40;46.90
81192;DHT22;70665;47.652;-2.730;2023-08-06T12:28:39;26.00;46.90
81192;DHT22;70665;47.652;-2.730;2023-08-06T12:31:05;26.00;44.10
81192;DHT22;70665;47.652;-2.730;2023-08-06T12:33:30;26.40;47.30
81192;DHT22;70665;47.652;-2.730;2023-08-06T12:35:56;26.60;44.50
81192;DHT22;70665;47.652;-2.730;2023-08-06T12:38:23;27.00;44.30
81192;DHT22;70665;47.652;-2.730;2023-08-06T12:40:48;27.00;44.90
81192;DHT22;70665;47.652;-2.730;2023-08-06T12:43:14;26.60;42.20
81192;DHT22;70665;47.652;-2.730;2023-08-06T12:45:40;26.00;43.90
81192;DHT22;70665;47.652;-2.730;2023-08-06T12:48:06;26.30;47.10
81192;DHT22;70665;47.652;-2.730;2023-08-06T12:50:32;27.10;41.80
81192;DHT22;70665;47.652;-2.730;2023-08-06T12:52:58;26.50;45.60
81192;DHT22;70665;47.652;-2.730;2023-08-06T12:55:23;26.00;45.40
81192;DHT22;70665;47.652;-2.730;2023-08-06T12:57:49;25.50;47.80
81192;DHT22;70665;47.652;-2.730;2023-08-06T13:00:14;25.00;49.30
81192;DHT22;70665;47.652;-2.730;2023-08-06T13:02:40;24.90;49.40
81192;DHT22;70665;47.652;-2.730;2023-08-06T13:05:06;24.90;49.70
81192;DHT22;70665;47.652;-2.730;2023-08-06T13:07:32;25.20;46.80
81192;DHT22;70665;47.652;-2.730;2023-08-06T13:09:58;25.00;48.60
81192;DHT22;70665;47.652;-2.730;2023-08-06T13:12:23;25.10;47.20
81192;DHT22;70665;47.652;-2.730;2023-08-06T13:14:49;25.40;50.90
81192;DHT22;70665;47.652;-2.730;2023-08-06T13:17:14;26.30;49.90
81192;DHT22;70665;47.652;-2.730;2023-08-06T13:19:40;27.20;48.40
81192;DHT22;70665;47.652;-2.730;2023-08-06T13:22:06;27.70;46.60
81192;DHT22;70665;47.652;-2.730;2023-08-06T13:24:34;27.30;43.60
81192;DHT22;70665;47.652;-2.730;2023-08-06T13:27:00;27.80;46.60
81192;DHT22;70665;47.652;-2.730;2023-08-06T13:29:27;27.70;46.00
81192;DHT22;70665;47.652;-2.730;2023-08-06T13:31:53;27.60;43.20
81192;DHT22;70665;47.652;-2.730;2023-08-06T13:34:19;27.00;42.80
81192;DHT22;70665;47.652;-2.730;2023-08-06T13:36:44;27.60;47.40
81192;DHT22;70665;47.652;-2.730;2023-08-06T13:39:10;27.80;43.50
81192;DHT22;70665;47.652;-2.730;2023-08-06T13:41:37;27.30;43.60
81192;DHT22;70665;47.652;-2.730;2023-08-06T13:44:04;26.50;49.00
81192;DHT22;70665;47.652;-2.730;2023-08-06T13:46:29;25.50;52.80
81192;DHT22;70665;47.652;-2.730;2023-08-06T13:48:55;26.10;51.70
81192;DHT22;70665;47.652;-2.730;2023-08-06T13:51:21;27.30;49.70
81192;DHT22;70665;47.652;-2.730;2023-08-06T13:53:47;27.50;48.80
81192;DHT22;70665;47.652;-2.730;2023-08-06T13:56:12;27.30;49.00
81192;DHT22;70665;47.652;-2.730;2023-08-06T13:58:40;26.10;48.20
81192;DHT22;70665;47.652;-2.730;2023-08-06T14:01:06;25.30;52.30
81192;DHT22;70665;47.652;-2.730;2023-08-06T14:03:32;24.70;52.30
81192;DHT22;70665;47.652;-2.730;2023-08-06T14:05:57;24.60;52.60
81192;DHT22;70665;47.652;-2.730;2023-08-06T14:08:24;24.60;53.00
81192;DHT22;70665;47.652;-2.730;2023-08-06T14:10:51;24.40;52.60
81192;DHT22;70665;47.652;-2.730;2023-08-06T14:13:16;24.90;52.10
81192;DHT22;70665;47.652;-2.730;2023-08-06T14:15:42;25.40;51.10
81192;DHT22;70665;47.652;-2.730;2023-08-06T14:18:12;25.50;49.40
81192;DHT22;70665;47.652;-2.730;2023-08-06T14:20:38;25.10;52.10
81192;DHT22;70665;47.652;-2.730;2023-08-06T14:23:04;25.20;52.10
81192;DHT22;70665;47.652;-2.730;2023-08-06T14:25:29;26.00;46.80
81192;DHT22;70665;47.652;-2.730;2023-08-06T14:27:55;27.30;45.40
81192;DHT22;70665;47.652;-2.730;2023-08-06T14:30:21;29.10;41.80
81192;DHT22;70665;47.652;-2.730;2023-08-06T14:32:46;30.20;41.50
81192;DHT22;70665;47.652;-2.730;2023-08-06T14:35:12;31.10;38.90
81192;DHT22;70665;47.652;-2.730;2023-08-06T14:37:37;30.30;40.70
81192;DHT22;70665;47.652;-2.730;2023-08-06T14:40:05;29.50;44.10
81192;DHT22;70665;47.652;-2.730;2023-08-06T14:42:31;28.50;42.60
81192;DHT22;70665;47.652;-2.730;2023-08-06T14:44:56;27.30;46.30
81192;DHT22;70665;47.652;-2.730;2023-08-06T14:47:23;26.70;47.50
81192;DHT22;70665;47.652;-2.730;2023-08-06T14:49:48;26.70;46.70
81192;DHT22;70665;47.652;-2.730;2023-08-06T14:52:15;27.10;47.00
81192;DHT22;70665;47.652;-2.730;2023-08-06T14:54:40;29.40;45.40
81192;DHT22;70665;47.652;-2.730;2023-08-06T14:57:06;31.30;41.40
81192;DHT22;70665;47.652;-2.730;2023-08-06T14:59:32;32.40;37.40
81192;DHT22;70665;47.652;-2.730;2023-08-06T15:01:58;31.60;39.30
81192;DHT22;70665;47.652;-2.730;2023-08-06T15:04:23;30.30;41.10
81192;DHT22;70665;47.652;-2.730;2023-08-06T15:06:49;29.40;41.90
81192;DHT22;70665;47.652;-2.730;2023-08-06T15:09:15;29.60;42.90
81192;DHT22;70665;47.652;-2.730;2023-08-06T15:11:40;29.90;43.90
81192;DHT22;70665;47.652;-2.730;2023-08-06T15:14:06;29.90;43.00
81192;DHT22;70665;47.652;-2.730;2023-08-06T15:16:33;30.40;40.50
81192;DHT22;70665;47.652;-2.730;2023-08-06T15:19:00;30.40;42.40
81192;DHT22;70665;47.652;-2.730;2023-08-06T15:21:25;30.10;43.80
81192;DHT22;70665;47.652;-2.730;2023-08-06T15:23:51;29.90;41.00
81192;DHT22;70665;47.652;-2.730;2023-08-06T15:26:16;30.10;43.50